Time;durP1;ratioP1;P1;durP2;ratioP2;P2;SDS_P1;SDS_P2;PMS_P1;PMS_P2;Temp;Humidity;BMP_temperature;BMP_pressure;BME280_temperature;BME280_humidity;BME280_pressure;Samples;Min_cycle;Max_cycle;Signal;HPM_P1;HPM_P2
2023/09/20 00:00:11;;;;;;;;;1.00;1.00;;;;;;;;5075640;28;8860;-79
2023/09/20 00:02:42;;;;;;;;;1.20;0.00;;;;;;;;5064132;28;8824;-83
2023/09/20 00:05:14;;;;;;;;;1.80;1.80;;;;;;;;5072517;28;8852;-83
2023/09/20 00:07:42;;;;;;;;;1.80;1.80;;;;;;;;5070421;28;9639;-83
2023/09/20 00:10:14;;;;;;;;;1.80;1.80;;;;;;;;5070322;28;8871;-88
2023/09/20 00:12:44;;;;;;;;;0.80;0.80;;;;;;;;5070534;28;8886;-78
2023/09/20 00:15:14;;;;;;;;;1.80;1.80;;;;;;;;5069877;28;8891;-78
2023/09/20 00:17:42;;;;;;;;;1.60;1.60;;;;;;;;5070571;28;8876;-78
2023/09/20 00:20:19;;;;;;;;;4.00;2.60;;;;;;;;5069990;28;8860;-81
2023/09/20 00:22:47;;;;;;;;;1.40;1.40;;;;;;;;5068822;28;9078;-80
2023/09/20 00:25:17;;;;;;;;;3.00;2.80;;;;;;;;5070698;28;8872;-83
2023/09/20 00:27:46;;;;;;;;;1.20;1.20;;;;;;;;5070314;28;8848;-79
2023/09/20 00:30:15;;;;;;;;;5.00;2.00;;;;;;;;5071190;28;8901;-80
2023/09/20 00:32:46;;;;;;;;;0.00;0.00;;;;;;;;5070353;28;8852;-79
2023/09/20 00:35:18;;;;;;;;;1.40;1.40;;;;;;;;5063885;28;8858;-85
2023/09/20 00:37:46;;;;;;;;;0.80;0.80;;;;;;;;5073296;28;8832;-87
2023/09/20 00:40:17;;;;;;;;;1.40;0.40;;;;;;;;5072951;28;8874;-83
2023/09/20 00:42:46;;;;;;;;;2.40;1.00;;;;;;;;5069828;28;8841;-80
2023/09/20 00:45:15;;;;;;;;;0.80;0.80;;;;;;;;5070001;28;9603;-81
2023/09/20 00:47:46;;;;;;;;;1.60;1.60;;;;;;;;5070033;28;8852;-81
2023/09/20 00:50:14;;;;;;;;;1.80;1.80;;;;;;;;5070256;28;8844;-83
2023/09/20 00:52:42;;;;;;;;;1.80;1.80;;;;;;;;5070154;28;8852;-84
2023/09/20 00:55:20;;;;;;;;;0.20;0.20;;;;;;;;5069744;28;9685;-87
2023/09/20 00:57:51;;;;;;;;;3.40;1.00;;;;;;;;5070387;28;8852;-90
2023/09/20 01:00:21;;;;;;;;;1.00;1.00;;;;;;;;5069617;28;8910;-87
2023/09/20 01:02:58;;;;;;;;;3.00;1.00;;;;;;;;5068747;28;8872;-90
2023/09/20 01:05:26;;;;;;;;;2.80;1.00;;;;;;;;5069997;28;8841;-85
2023/09/20 01:07:55;;;;;;;;;1.00;1.00;;;;;;;;5071138;28;8856;-79
2023/09/20 01:10:23;;;;;;;;;1.00;1.00;;;;;;;;5073114;28;8848;-77
2023/09/20 01:12:54;;;;;;;;;1.00;1.00;;;;;;;;5072522;28;8836;-79
2023/09/20 01:15:22;;;;;;;;;1.00;1.00;;;;;;;;5070922;28;8880;-82
2023/09/20 01:17:53;;;;;;;;;0.80;0.80;;;;;;;;5069351;28;8837;-79
2023/09/20 01:20:20;;;;;;;;;1.80;1.00;;;;;;;;5069776;28;8859;-82
2023/09/20 01:22:54;;;;;;;;;1.40;1.20;;;;;;;;5069501;28;8840;-80
2023/09/20 01:25:23;;;;;;;;;0.80;0.80;;;;;;;;5071662;28;8897;-82
2023/09/20 01:27:52;;;;;;;;;0.00;0.00;;;;;;;;5073929;28;8841;-78
2023/09/20 01:30:19;;;;;;;;;1.00;1.00;;;;;;;;5074171;28;8858;-80
2023/09/20 01:32:46;;;;;;;;;0.80;0.20;;;;;;;;5074319;28;8886;-80
2023/09/20 01:35:16;;;;;;;;;4.80;2.00;;;;;;;;5074412;28;8868;-83
2023/09/20 01:37:44;;;;;;;;;2.80;1.00;;;;;;;;5074910;28;8871;-84
2023/09/20 01:40:16;;;;;;;;;1.60;1.60;;;;;;;;5072819;28;8882;-83
2023/09/20 01:42:47;;;;;;;;;0.40;0.40;;;;;;;;5071350;28;8890;-81
2023/09/20 01:45:17;;;;;;;;;3.80;0.80;;;;;;;;5070595;28;8860;-80
2023/09/20 01:47:49;;;;;;;;;1.60;1.60;;;;;;;;5071712;28;8861;-83
2023/09/20 01:50:19;;;;;;;;;0.80;0.80;;;;;;;;5069399;28;8852;-78
2023/09/20 01:52:47;;;;;;;;;3.00;2.00;;;;;;;;5068409;28;9606;-82
2023/09/20 01:55:17;;;;;;;;;1.00;1.00;;;;;;;;5068938;28;8844;-88
2023/09/20 01:57:46;;;;;;;;;1.00;1.00;;;;;;;;5068210;28;8848;-81
2023/09/20 02:00:16;;;;;;;;;1.00;1.00;;;;;;;;5067821;28;8856;-85
2023/09/20 02:02:47;;;;;;;;;1.00;1.00;;;;;;;;5068706;28;8856;-78
2023/09/20 02:05:17;;;;;;;;;2.40;1.00;;;;;;;;5051460;28;8878;-81
2023/09/20 02:07:46;;;;;;;;;0.60;0.60;;;;;;;;5068765;28;8864;-78
2023/09/20 02:10:16;;;;;;;;;1.00;1.00;;;;;;;;5069698;28;8872;-81
2023/09/20 02:12:46;;;;;;;;;1.00;1.00;;;;;;;;5069966;28;8866;-78
2023/09/20 02:15:14;;;;;;;;;1.40;0.80;;;;;;;;5069695;28;8895;-83
2023/09/20 02:17:44;;;;;;;;;1.00;1.00;;;;;;;;5070742;28;8860;-84
2023/09/20 02:20:19;;;;;;;;;1.00;1.00;;;;;;;;5071250;28;8926;-82
2023/09/20 02:22:47;;;;;;;;;0.80;0.80;;;;;;;;5071235;28;8870;-82
2023/09/20 02:25:20;;;;;;;;;1.00;1.00;;;;;;;;5068494;28;8871;-79
2023/09/20 02:27:48;;;;;;;;;2.00;2.00;;;;;;;;5069631;28;8838;-81
2023/09/20 02:30:16;;;;;;;;;1.00;1.00;;;;;;;;5069242;28;8857;-85
2023/09/20 02:32:44;;;;;;;;;1.00;1.00;;;;;;;;5069691;28;9463;-86
2023/09/20 02:35:16;;;;;;;;;0.00;0.00;;;;;;;;5070018;28;8856;-81
2023/09/20 02:37:43;;;;;;;;;2.00;2.00;;;;;;;;5068889;28;8868;-89
2023/09/20 02:40:14;;;;;;;;;0.60;0.60;;;;;;;;5068426;28;8829;-90
2023/09/20 02:42:44;;;;;;;;;2.40;2.40;;;;;;;;5068481;28;8844;-89
2023/09/20 02:45:15;;;;;;;;;1.00;1.00;;;;;;;;5068005;28;8945;-79
2023/09/20 02:47:44;;;;;;;;;1.20;1.20;;;;;;;;5068342;28;8900;-83
2023/09/20 02:50:16;;;;;;;;;2.75;1.00;;;;;;;;5056638;28;9817;-86
2023/09/20 02:52:47;;;;;;;;;0.00;0.00;;;;;;;;5071398;28;9645;-82
2023/09/20 02:55:17;;;;;;;;;1.00;1.00;;;;;;;;5071317;28;8864;-80
2023/09/20 02:57:49;;;;;;;;;1.25;1.25;;;;;;;;5077285;28;8875;-79
2023/09/20 03:00:21;;;;;;;;;2.00;2.00;;;;;;;;5074689;28;8864;-84
2023/09/20 03:02:49;;;;;;;;;2.00;2.00;;;;;;;;5073012;28;8852;-78
2023/09/20 03:05:18;;;;;;;;;1.00;1.00;;;;;;;;5074523;28;8844;-81
2023/09/20 03:07:46;;;;;;;;;1.50;1.00;;;;;;;;5082142;28;8977;-82
2023/09/20 03:10:19;;;;;;;;;2.00;2.00;;;;;;;;5085049;28;8852;-82
2023/09/20 03:12:51;;;;;;;;;2.60;1.00;;;;;;;;5076460;28;8829;-80
2023/09/20 03:15:21;;;;;;;;;1.80;1.80;;;;;;;;5077825;28;8905;-79
2023/09/20 03:17:50;;;;;;;;;1.00;1.00;;;;;;;;5065498;28;8876;-84
2023/09/20 03:20:22;;;;;;;;;1.00;1.00;;;;;;;;5076637;28;9002;-85
2023/09/20 03:22:53;;;;;;;;;2.00;2.00;;;;;;;;5075672;28;8926;-83
2023/09/20 03:25:21;;;;;;;;;2.00;2.00;;;;;;;;5073168;28;8892;-79
2023/09/20 03:27:51;;;;;;;;;1.50;1.50;;;;;;;;5073708;28;8979;-80
2023/09/20 03:30:20;;;;;;;;;3.50;2.00;;;;;;;;5073591;28;8840;-82
2023/09/20 03:32:47;;;;;;;;;1.20;1.20;;;;;;;;5074982;28;8851;-79
2023/09/20 03:35:15;;;;;;;;;1.00;1.00;;;;;;;;5071666;28;9454;-80
2023/09/20 03:37:43;;;;;;;;;1.00;1.00;;;;;;;;5070755;28;8876;-83
2023/09/20 03:40:17;;;;;;;;;0.80;0.80;;;;;;;;5072250;28;8853;-77
2023/09/20 03:42:45;;;;;;;;;0.80;0.80;;;;;;;;5076880;28;8860;-79
2023/09/20 03:45:17;;;;;;;;;2.00;2.00;;;;;;;;5070897;28;8973;-81
2023/09/20 03:47:47;;;;;;;;;1.00;0.00;;;;;;;;5070272;28;8863;-82
2023/09/20 03:50:18;;;;;;;;;1.00;1.00;;;;;;;;5061368;28;8971;-81
2023/09/20 03:52:45;;;;;;;;;0.25;0.25;;;;;;;;5071001;28;8894;-83
2023/09/20 03:55:16;;;;;;;;;1.00;1.00;;;;;;;;5071100;28;8884;-80
2023/09/20 03:57:43;;;;;;;;;2.50;1.25;;;;;;;;5070065;28;9667;-85
2023/09/20 04:00:12;;;;;;;;;0.50;0.50;;;;;;;;5070027;28;8963;-77
2023/09/20 04:02:40;;;;;;;;;1.00;1.00;;;;;;;;5071009;28;8869;-78
2023/09/20 04:05:13;;;;;;;;;2.00;2.00;;;;;;;;5070610;28;8891;-78
2023/09/20 04:07:41;;;;;;;;;1.00;1.00;;;;;;;;5070439;28;8837;-78
2023/09/20 04:10:09;;;;;;;;;0.00;0.00;;;;;;;;5071549;28;8845;-85
2023/09/20 04:12:36;;;;;;;;;1.00;1.00;;;;;;;;5069767;28;8857;-88
2023/09/20 04:15:04;;;;;;;;;1.00;1.00;;;;;;;;5070942;28;8876;-79
2023/09/20 04:17:33;;;;;;;;;0.50;0.50;;;;;;;;5070077;28;8848;-81
2023/09/20 04:20:04;;;;;;;;;1.75;1.75;;;;;;;;5069642;28;8868;-84
2023/09/20 04:22:32;;;;;;;;;0.00;0.00;;;;;;;;5069324;28;8841;-83
2023/09/20 04:24:59;;;;;;;;;1.00;1.00;;;;;;;;5069797;28;8870;-87
2023/09/20 04:27:27;;;;;;;;;2.00;2.00;;;;;;;;5069499;28;8868;-76
2023/09/20 04:29:55;;;;;;;;;3.50;1.75;;;;;;;;5070332;28;8925;-87
2023/09/20 04:32:22;;;;;;;;;1.75;1.75;;;;;;;;5069423;28;9618;-85
2023/09/20 04:34:51;;;;;;;;;1.00;1.00;;;;;;;;5071086;28;8848;-77
2023/09/20 04:37:20;;;;;;;;;1.00;1.00;;;;;;;;5073269;28;8917;-80
2023/09/20 04:39:47;;;;;;;;;1.00;1.00;;;;;;;;5070844;28;8872;-79
2023/09/20 04:42:15;;;;;;;;;0.25;0.25;;;;;;;;5070663;28;8950;-83
2023/09/20 04:44:42;;;;;;;;;1.00;1.00;;;;;;;;5070059;28;8829;-83
2023/09/20 04:47:11;;;;;;;;;1.25;1.25;;;;;;;;5071709;28;8856;-82
2023/09/20 04:49:39;;;;;;;;;1.00;1.00;;;;;;;;5072513;28;8875;-77
2023/09/20 04:52:09;;;;;;;;;2.25;2.25;;;;;;;;5072974;28;8871;-76
2023/09/20 04:54:37;;;;;;;;;1.25;1.25;;;;;;;;5073300;28;8832;-76
2023/09/20 04:57:05;;;;;;;;;1.00;1.00;;;;;;;;5072126;28;8876;-76
2023/09/20 04:59:33;;;;;;;;;2.00;2.00;;;;;;;;5073606;28;8848;-77
2023/09/20 05:02:02;;;;;;;;;1.00;1.00;;;;;;;;5068810;28;8800;-89
2023/09/20 05:04:29;;;;;;;;;0.75;0.75;;;;;;;;5069039;28;8840;-82
2023/09/20 05:06:58;;;;;;;;;1.25;1.25;;;;;;;;5069361;28;8836;-81
2023/09/20 05:09:26;;;;;;;;;1.00;1.00;;;;;;;;5071191;28;8971;-71
2023/09/20 05:11:54;;;;;;;;;3.00;1.00;;;;;;;;5068781;28;8860;-75
2023/09/20 05:14:22;;;;;;;;;1.00;1.00;;;;;;;;5068320;28;8840;-75
2023/09/20 05:16:49;;;;;;;;;1.50;1.50;;;;;;;;5068258;28;8866;-71
2023/09/20 05:19:16;;;;;;;;;3.00;1.75;;;;;;;;5079667;28;8860;-70
2023/09/20 05:21:44;;;;;;;;;1.25;1.25;;;;;;;;5068242;28;8863;-71
2023/09/20 05:24:12;;;;;;;;;3.00;1.25;;;;;;;;5067956;28;8836;-70
2023/09/20 05:26:39;;;;;;;;;1.00;1.00;;;;;;;;5067825;28;8872;-70
2023/09/20 05:29:09;;;;;;;;;1.00;1.00;;;;;;;;5068200;28;8874;-70
2023/09/20 05:31:37;;;;;;;;;0.00;0.00;;;;;;;;5067666;28;8792;-73
2023/09/20 05:34:05;;;;;;;;;1.00;0.75;;;;;;;;5067840;28;9657;-77
2023/09/20 05:36:33;;;;;;;;;1.00;1.00;;;;;;;;5067653;28;8848;-71
2023/09/20 05:39:06;;;;;;;;;1.75;1.75;;;;;;;;5067685;28;8856;-75
2023/09/20 05:41:36;;;;;;;;;1.00;1.00;;;;;;;;5067672;28;8836;-72
2023/09/20 05:44:04;;;;;;;;;1.75;1.75;;;;;;;;5067682;28;8897;-70
2023/09/20 05:46:33;;;;;;;;;2.50;1.75;;;;;;;;5067263;28;8840;-73
2023/09/20 05:49:00;;;;;;;;;1.50;1.50;;;;;;;;5067366;28;8840;-71
2023/09/20 05:51:30;;;;;;;;;2.75;1.25;;;;;;;;5066231;28;8849;-72
2023/09/20 05:53:58;;;;;;;;;2.50;2.50;;;;;;;;5067383;28;8864;-74
2023/09/20 05:56:27;;;;;;;;;1.25;1.25;;;;;;;;5068011;28;8876;-71
2023/09/20 05:58:54;;;;;;;;;3.00;1.00;;;;;;;;5068109;28;8856;-72
2023/09/20 06:01:23;;;;;;;;;3.00;3.00;;;;;;;;5070601;28;8810;-78
2023/09/20 06:03:56;;;;;;;;;2.00;2.00;;;;;;;;5073505;28;8852;-73
2023/09/20 06:06:23;;;;;;;;;0.50;0.50;;;;;;;;5067733;28;8836;-72
2023/09/20 06:08:50;;;;;;;;;1.50;1.00;;;;;;;;5066916;28;8840;-71
2023/09/20 06:11:18;;;;;;;;;3.00;3.00;;;;;;;;5067076;28;9539;-70
2023/09/20 06:13:46;;;;;;;;;2.00;2.00;;;;;;;;5066787;28;8890;-70
2023/09/20 06:16:13;;;;;;;;;2.50;2.50;;;;;;;;5067694;28;8902;-82
2023/09/20 06:18:45;;;;;;;;;2.50;2.50;;;;;;;;5067638;28;8840;-70
2023/09/20 06:21:17;;;;;;;;;1.00;1.00;;;;;;;;5067837;28;8970;-76
2023/09/20 06:23:44;;;;;;;;;2.00;1.00;;;;;;;;5067126;28;8884;-72
2023/09/20 06:26:12;;;;;;;;;1.25;1.25;;;;;;;;5069436;28;8856;-71
2023/09/20 06:28:41;;;;;;;;;1.75;1.75;;;;;;;;5070157;28;8882;-72
2023/09/20 06:31:09;;;;;;;;;3.00;1.50;;;;;;;;5072759;28;8789;-73
2023/09/20 06:33:36;;;;;;;;;1.25;1.25;;;;;;;;5074286;28;8876;-72
2023/09/20 06:36:06;;;;;;;;;4.00;2.00;;;;;;;;5075639;28;8859;-71
2023/09/20 06:38:38;;;;;;;;;1.25;1.25;;;;;;;;5071763;28;8867;-70
2023/09/20 06:41:12;;;;;;;;;2.00;2.00;;;;;;;;5071376;28;9007;-74
2023/09/20 06:43:40;;;;;;;;;4.25;2.75;;;;;;;;5070269;28;8848;-74
2023/09/20 06:46:10;;;;;;;;;3.25;3.25;;;;;;;;5071245;28;8836;-83
2023/09/20 06:48:37;;;;;;;;;3.75;1.00;;;;;;;;5060219;28;8849;-86
2023/09/20 06:51:08;;;;;;;;;3.50;2.00;;;;;;;;5073269;28;9271;-79
2023/09/20 06:53:52;;;;;;;;;2.25;2.00;;;;;;;;5073642;28;8982;-73
2023/09/20 06:56:19;;;;;;;;;4.00;2.25;;;;;;;;5071480;28;8860;-85
2023/09/20 06:58:51;;;;;;;;;3.00;2.00;;;;;;;;5071995;28;8876;-79
2023/09/20 07:01:19;;;;;;;;;2.00;2.00;;;;;;;;5070270;28;8780;-76
2023/09/20 07:03:46;;;;;;;;;2.25;2.25;;;;;;;;5071017;28;8868;-74
2023/09/20 07:06:13;;;;;;;;;2.75;2.75;;;;;;;;5068996;28;8836;-73
2023/09/20 07:08:45;;;;;;;;;1.60;0.00;;;;;;;;5070747;28;8882;-79
2023/09/20 07:11:13;;;;;;;;;3.75;3.00;;;;;;;;5070825;28;8840;-75
2023/09/20 07:13:43;;;;;;;;;2.00;2.00;;;;;;;;5070339;28;8925;-71
2023/09/20 07:16:10;;;;;;;;;2.75;2.25;;;;;;;;5058900;28;8851;-75
2023/09/20 07:18:44;;;;;;;;;2.00;2.00;;;;;;;;5067719;28;8872;-75
2023/09/20 07:21:11;;;;;;;;;3.75;1.25;;;;;;;;5079055;28;8888;-81
2023/09/20 07:23:38;;;;;;;;;2.80;2.80;;;;;;;;5074130;28;8883;-72
2023/09/20 07:26:07;;;;;;;;;3.75;2.75;;;;;;;;5071404;28;8892;-71
2023/09/20 07:28:36;;;;;;;;;2.00;2.00;;;;;;;;5069780;28;8860;-74
2023/09/20 07:31:06;;;;;;;;;3.80;3.00;;;;;;;;5070024;28;8765;-72
2023/09/20 07:33:33;;;;;;;;;3.00;3.00;;;;;;;;5069845;28;8857;-70
2023/09/20 07:36:00;;;;;;;;;3.00;3.00;;;;;;;;5070381;28;8825;-71
2023/09/20 07:38:29;;;;;;;;;3.25;3.25;;;;;;;;5071432;28;8833;-79
2023/09/20 07:41:12;;;;;;;;;3.60;3.60;;;;;;;;5071481;28;8860;-74
2023/09/20 07:43:39;;;;;;;;;3.40;3.40;;;;;;;;5070258;28;8883;-71
2023/09/20 07:46:07;;;;;;;;;3.40;3.40;;;;;;;;5069646;28;8882;-73
2023/09/20 07:48:34;;;;;;;;;3.80;3.80;;;;;;;;5070252;28;8848;-73
2023/09/20 07:51:04;;;;;;;;;5.60;4.00;;;;;;;;5069811;28;8898;-76
2023/09/20 07:53:34;;;;;;;;;4.60;3.00;;;;;;;;5070140;28;8871;-71
2023/09/20 07:56:03;;;;;;;;;3.00;3.00;;;;;;;;5069780;28;8949;-71
2023/09/20 07:58:35;;;;;;;;;4.80;2.80;;;;;;;;5070594;28;8852;-70
2023/09/20 08:01:19;;;;;;;;;3.20;2.40;;;;;;;;5071013;28;8804;-70
2023/09/20 08:03:50;;;;;;;;;3.20;3.20;;;;;;;;5074563;28;8972;-71
2023/09/20 08:06:21;;;;;;;;;3.60;3.60;;;;;;;;5074670;28;8872;-77
2023/09/20 08:08:49;;;;;;;;;0.80;0.80;;;;;;;;5072891;28;8878;-70
2023/09/20 08:11:16;;;;;;;;;4.00;3.20;;;;;;;;5074464;28;8839;-73
2023/09/20 08:13:45;;;;;;;;;3.40;3.40;;;;;;;;5074785;28;8983;-73
2023/09/20 08:16:12;;;;;;;;;5.00;3.20;;;;;;;;5069610;28;8837;-73
2023/09/20 08:21:26;;;;;;;;;4.20;3.40;;;;;;;;5069593;28;8832;-74
2023/09/20 09:00:00;;;;;;;;;2.00;2.00;;;;;;;;5057411;28;8836;-74
2023/09/20 09:02:29;;;;;;;;;2.00;2.00;;;;;;;;5068149;28;9587;-72
2023/09/20 09:04:56;;;;;;;;;2.20;0.80;;;;;;;;5068572;28;8886;-75
2023/09/20 09:07:23;;;;;;;;;3.20;1.80;;;;;;;;5069085;28;8840;-71
2023/09/20 09:09:51;;;;;;;;;2.80;2.80;;;;;;;;5068827;28;8825;-72
2023/09/20 09:12:19;;;;;;;;;1.40;1.40;;;;;;;;5068422;28;8876;-71
2023/09/20 09:14:48;;;;;;;;;2.00;2.00;;;;;;;;5068306;28;8829;-72
2023/09/20 09:17:16;;;;;;;;;1.40;1.40;;;;;;;;5068089;28;8878;-71
2023/09/20 09:19:44;;;;;;;;;2.00;2.00;;;;;;;;5068240;28;9494;-75
2023/09/20 09:22:12;;;;;;;;;1.40;1.40;;;;;;;;5067873;28;8848;-79
2023/09/20 09:24:44;;;;;;;;;1.80;1.80;;;;;;;;5068461;28;8853;-72
2023/09/20 09:27:12;;;;;;;;;2.00;2.00;;;;;;;;5067828;28;8840;-74
2023/09/20 09:29:42;;;;;;;;;1.20;1.20;;;;;;;;5068058;28;8852;-71
2023/09/20 09:32:09;;;;;;;;;2.00;2.00;;;;;;;;5066711;28;8823;-73
2023/09/20 09:34:38;;;;;;;;;1.60;1.60;;;;;;;;5068072;28;8856;-71
2023/09/20 09:37:07;;;;;;;;;1.20;1.20;;;;;;;;5080826;28;8872;-75
2023/09/20 09:39:36;;;;;;;;;1.80;1.80;;;;;;;;5071244;28;8841;-73
2023/09/20 09:42:04;;;;;;;;;1.20;1.20;;;;;;;;5060455;28;8930;-73
2023/09/20 09:44:48;;;;;;;;;1.80;1.60;;;;;;;;5071437;28;8849;-71
2023/09/20 09:47:17;;;;;;;;;4.40;2.40;;;;;;;;5071184;28;8841;-76
2023/09/20 09:49:45;;;;;;;;;1.20;1.20;;;;;;;;5070628;28;8954;-73
2023/09/20 09:52:17;;;;;;;;;2.80;2.80;;;;;;;;5071347;28;8967;-74
2023/09/20 09:54:45;;;;;;;;;3.20;3.20;;;;;;;;5066078;28;8862;-76
2023/09/20 09:57:13;;;;;;;;;2.60;2.60;;;;;;;;5067717;28;8844;-73
2023/09/20 09:59:41;;;;;;;;;1.40;1.40;;;;;;;;5065987;28;8868;-74
2023/09/20 10:02:15;;;;;;;;;2.00;2.00;;;;;;;;5066741;28;8827;-73
2023/09/20 10:04:44;;;;;;;;;2.40;2.40;;;;;;;;5067035;28;8935;-74
2023/09/20 10:07:16;;;;;;;;;5.80;2.80;;;;;;;;5067135;28;8868;-71
2023/09/20 10:09:46;;;;;;;;;3.40;2.60;;;;;;;;5067496;28;9615;-73
2023/09/20 10:12:15;;;;;;;;;2.00;2.00;;;;;;;;5067047;28;8888;-80
2023/09/20 10:14:43;;;;;;;;;3.00;3.00;;;;;;;;5067897;28;8856;-72
2023/09/20 10:17:14;;;;;;;;;1.20;1.00;;;;;;;;5068312;28;8904;-75
2023/09/20 10:19:41;;;;;;;;;2.80;2.80;;;;;;;;5068426;28;8868;-73
2023/09/20 10:22:13;;;;;;;;;2.40;2.40;;;;;;;;5067095;28;8844;-74
2023/09/20 10:24:50;;;;;;;;;1.60;1.60;;;;;;;;5067783;28;8860;-72
2023/09/20 10:27:19;;;;;;;;;1.20;1.20;;;;;;;;5067249;28;8860;-76
2023/09/20 10:29:59;;;;;;;;;3.00;3.00;;;;;;;;5067291;28;8967;-73
2023/09/20 10:32:32;;;;;;;;;2.20;2.20;;;;;;;;5056025;28;8828;-76
2023/09/20 10:35:21;;;;;;;;;2.80;2.80;;;;;;;;5066866;28;8856;-78
2023/09/20 10:38:23;;;;;;;;;1.40;1.40;;;;;;;;5067643;28;8844;-74
2023/09/20 10:41:00;;;;;;;;;4.00;2.80;;;;;;;;5058637;28;8879;-78
2023/09/20 10:43:51;;;;;;;;;4.60;2.80;;;;;;;;5067048;28;8863;-78
2023/09/20 10:46:22;;;;;;;;;2.00;2.00;;;;;;;;5068024;28;8844;-74
2023/09/20 10:48:51;;;;;;;;;2.00;1.80;;;;;;;;5069611;28;8853;-75
2023/09/20 10:51:42;;;;;;;;;2.80;1.40;;;;;;;;5071549;28;8856;-83
2023/09/20 10:54:23;;;;;;;;;2.20;2.20;;;;;;;;5063916;28;8852;-72
2023/09/20 10:57:07;;;;;;;;;1.80;1.80;;;;;;;;5057657;28;8883;-72
2023/09/20 10:59:36;;;;;;;;;1.40;1.40;;;;;;;;5066407;28;8840;-71
2023/09/20 11:02:12;;;;;;;;;5.40;1.80;;;;;;;;5066536;28;8820;-70
2023/09/20 11:04:40;;;;;;;;;2.00;2.00;;;;;;;;5067105;28;8921;-71
2023/09/20 11:07:11;;;;;;;;;1.20;1.20;;;;;;;;5066489;28;8841;-72
2023/09/20 11:09:39;;;;;;;;;0.80;0.80;;;;;;;;5067198;28;8816;-72
2023/09/20 11:12:11;;;;;;;;;1.80;1.80;;;;;;;;5066454;28;9651;-71
2023/09/20 11:14:40;;;;;;;;;1.00;1.00;;;;;;;;5055622;28;9635;-74
2023/09/20 11:17:08;;;;;;;;;0.40;0.40;;;;;;;;5069666;28;8988;-74
2023/09/20 11:19:35;;;;;;;;;1.00;1.00;;;;;;;;5072924;28;8859;-75
2023/09/20 11:22:05;;;;;;;;;2.00;2.00;;;;;;;;5074463;28;8864;-71
2023/09/20 11:24:33;;;;;;;;;1.00;1.00;;;;;;;;5075077;28;8915;-71
2023/09/20 11:27:00;;;;;;;;;1.00;1.00;;;;;;;;5073797;28;8855;-71
2023/09/20 11:29:28;;;;;;;;;1.80;1.80;;;;;;;;5074888;28;8864;-75
2023/09/20 11:31:58;;;;;;;;;1.20;1.20;;;;;;;;5070404;28;8828;-72
2023/09/20 11:34:41;;;;;;;;;0.40;0.40;;;;;;;;5070534;28;8849;-71
2023/09/20 11:37:09;;;;;;;;;2.20;0.60;;;;;;;;5069328;28;8856;-70
2023/09/20 11:39:42;;;;;;;;;3.00;2.00;;;;;;;;5069493;28;8871;-71
2023/09/20 11:42:10;;;;;;;;;2.20;2.20;;;;;;;;5069864;28;8978;-73
2023/09/20 11:44:39;;;;;;;;;1.80;1.00;;;;;;;;5069772;28;8855;-71
2023/09/20 11:47:09;;;;;;;;;4.00;2.60;;;;;;;;5069808;28;8849;-74
2023/09/20 11:49:37;;;;;;;;;1.00;1.00;;;;;;;;5069592;28;8869;-72
2023/09/20 11:52:05;;;;;;;;;1.20;1.20;;;;;;;;5069944;28;8879;-72
2023/09/20 11:54:37;;;;;;;;;1.20;1.20;;;;;;;;5070539;28;8921;-74
2023/09/20 11:57:05;;;;;;;;;0.80;0.80;;;;;;;;5071313;28;9300;-73
2023/09/20 11:59:42;;;;;;;;;1.00;1.00;;;;;;;;5070707;28;8868;-72
2023/09/20 12:02:09;;;;;;;;;1.20;1.20;;;;;;;;5070632;28;8816;-71
2023/09/20 12:04:43;;;;;;;;;1.00;1.00;;;;;;;;5069286;28;8872;-71
2023/09/20 12:07:12;;;;;;;;;1.00;1.00;;;;;;;;5069631;28;8933;-73
2023/09/20 12:09:39;;;;;;;;;0.00;0.00;;;;;;;;5069787;28;8864;-72
2023/09/20 12:12:08;;;;;;;;;0.40;0.40;;;;;;;;5068905;28;8868;-72
2023/09/20 12:14:37;;;;;;;;;1.80;1.00;;;;;;;;5069825;28;8844;-73
2023/09/20 12:17:08;;;;;;;;;0.80;0.80;;;;;;;;5069353;28;8868;-71
2023/09/20 12:19:36;;;;;;;;;0.20;0.20;;;;;;;;5069630;28;8856;-74
2023/09/20 12:22:04;;;;;;;;;1.00;1.00;;;;;;;;5069250;28;8876;-71
2023/09/20 12:24:32;;;;;;;;;1.00;1.00;;;;;;;;5069599;28;8852;-79
2023/09/20 12:26:59;;;;;;;;;0.60;0.60;;;;;;;;5068485;28;8834;-75
2023/09/20 12:29:26;;;;;;;;;0.00;0.00;;;;;;;;5068534;28;8856;-76
2023/09/20 12:31:53;;;;;;;;;1.00;1.00;;;;;;;;5068555;28;8805;-73
2023/09/20 12:34:22;;;;;;;;;2.00;0.60;;;;;;;;5069839;28;8848;-74
2023/09/20 12:36:53;;;;;;;;;2.20;0.40;;;;;;;;5069446;28;8860;-75
2023/09/20 12:39:20;;;;;;;;;1.00;1.00;;;;;;;;5071903;28;8875;-76
2023/09/20 12:41:47;;;;;;;;;0.00;0.00;;;;;;;;5071722;28;8852;-74
2023/09/20 12:44:15;;;;;;;;;2.00;1.00;;;;;;;;5072042;28;9630;-77
2023/09/20 12:46:44;;;;;;;;;1.00;1.00;;;;;;;;5070402;28;8864;-74
2023/09/20 12:49:14;;;;;;;;;0.20;0.20;;;;;;;;5069744;28;8841;-72
2023/09/20 12:51:43;;;;;;;;;1.80;0.00;;;;;;;;5069109;28;8855;-81
2023/09/20 12:54:11;;;;;;;;;1.80;1.00;;;;;;;;5070029;28;8868;-78
2023/09/20 12:56:39;;;;;;;;;2.00;0.00;;;;;;;;5071149;28;8833;-78
2023/09/20 12:59:06;;;;;;;;;1.20;1.20;;;;;;;;5071568;28;8848;-74
2023/09/20 13:01:33;;;;;;;;;0.00;0.00;;;;;;;;5072351;28;8820;-75
2023/09/20 13:04:01;;;;;;;;;0.00;0.00;;;;;;;;5072523;28;8890;-72
2023/09/20 13:06:28;;;;;;;;;0.80;0.80;;;;;;;;5073595;28;8948;-75
2023/09/20 13:08:57;;;;;;;;;1.00;1.00;;;;;;;;5071329;28;8876;-87
2023/09/20 13:11:24;;;;;;;;;2.00;1.00;;;;;;;;5069487;28;8858;-91
2023/09/20 13:13:52;;;;;;;;;0.40;0.40;;;;;;;;5068495;28;8931;-92
2023/09/20 13:16:20;;;;;;;;;1.20;1.20;;;;;;;;5074669;28;8871;-84
2023/09/20 13:18:46;;;;;;;;;0.00;0.00;;;;;;;;5074868;28;8871;-83
2023/09/20 13:21:13;;;;;;;;;1.00;1.00;;;;;;;;5074437;28;8878;-84
2023/09/20 13:23:41;;;;;;;;;0.00;0.00;;;;;;;;5070195;28;8950;-79
2023/09/20 13:26:11;;;;;;;;;1.00;1.00;;;;;;;;5069183;28;9721;-77
2023/09/20 13:28:39;;;;;;;;;0.60;0.60;;;;;;;;5069219;28;8851;-88
2023/09/20 13:31:11;;;;;;;;;0.60;0.60;;;;;;;;5068975;28;8796;-78
2023/09/20 13:33:39;;;;;;;;;0.40;0.40;;;;;;;;5056767;28;8859;-81
2023/09/20 13:36:06;;;;;;;;;1.00;1.00;;;;;;;;5069208;28;8856;-84
2023/09/20 13:38:36;;;;;;;;;1.00;1.00;;;;;;;;5069429;28;8883;-82
2023/09/20 13:41:03;;;;;;;;;0.00;0.00;;;;;;;;5069861;28;8860;-78
2023/09/20 13:43:35;;;;;;;;;1.00;1.00;;;;;;;;5067956;28;8856;-89
2023/09/20 13:46:02;;;;;;;;;1.00;1.00;;;;;;;;5068488;28;8852;-75
2023/09/20 13:48:29;;;;;;;;;0.00;0.00;;;;;;;;5067587;28;8862;-75
2023/09/20 13:50:56;;;;;;;;;1.00;1.00;;;;;;;;5069109;28;8891;-77
2023/09/20 13:53:24;;;;;;;;;1.00;1.00;;;;;;;;5070438;28;9258;-81
2023/09/20 13:56:00;;;;;;;;;1.00;1.00;;;;;;;;5068905;28;8844;-78
2023/09/20 13:58:28;;;;;;;;;3.00;1.40;;;;;;;;5057684;28;9014;-79
2023/09/20 14:00:58;;;;;;;;;1.00;1.00;;;;;;;;5066790;28;8815;-76
2023/09/20 14:03:26;;;;;;;;;2.80;1.00;;;;;;;;5069720;28;8967;-81
2023/09/20 14:05:54;;;;;;;;;4.00;3.40;;;;;;;;5069362;28;8871;-78
2023/09/20 14:08:21;;;;;;;;;1.40;1.40;;;;;;;;5068397;28;8850;-78
2023/09/20 14:10:48;;;;;;;;;2.80;2.20;;;;;;;;5067469;28;8848;-73
2023/09/20 14:13:15;;;;;;;;;2.00;2.00;;;;;;;;5067683;28;8902;-75
2023/09/20 14:15:42;;;;;;;;;2.80;1.80;;;;;;;;5066889;28;8867;-81
2023/09/20 14:18:11;;;;;;;;;1.00;1.00;;;;;;;;5067838;28;8865;-73
2023/09/20 14:20:40;;;;;;;;;1.00;1.00;;;;;;;;5067502;28;8965;-73
2023/09/20 14:23:07;;;;;;;;;5.00;3.80;;;;;;;;5067317;28;8864;-75
2023/09/20 14:25:36;;;;;;;;;8.00;7.80;;;;;;;;5067861;28;8890;-72
2023/09/20 14:28:04;;;;;;;;;1.60;1.60;;;;;;;;5067902;28;8867;-78
2023/09/20 14:30:33;;;;;;;;;2.20;2.20;;;;;;;;5067304;28;8773;-72
2023/09/20 14:33:01;;;;;;;;;1.40;1.40;;;;;;;;5068220;28;8956;-73
2023/09/20 14:35:29;;;;;;;;;0.80;0.80;;;;;;;;5069089;28;8849;-75
2023/09/20 14:37:57;;;;;;;;;1.40;1.00;;;;;;;;5070571;28;8880;-72
2023/09/20 14:40:26;;;;;;;;;1.60;1.60;;;;;;;;5070489;28;8845;-73
2023/09/20 14:42:54;;;;;;;;;0.80;0.80;;;;;;;;5068488;28;8864;-72
2023/09/20 14:45:24;;;;;;;;;1.00;1.00;;;;;;;;5070892;28;8983;-76
2023/09/20 14:47:52;;;;;;;;;1.80;1.80;;;;;;;;5068378;28;8833;-76
2023/09/20 14:50:19;;;;;;;;;1.40;1.40;;;;;;;;5067741;28;9620;-80
2023/09/20 14:52:47;;;;;;;;;1.00;1.00;;;;;;;;5071147;28;8832;-79
2023/09/20 14:55:18;;;;;;;;;2.00;2.00;;;;;;;;5071938;28;8872;-79
2023/09/20 14:57:47;;;;;;;;;2.40;2.40;;;;;;;;5071959;28;8875;-73
2023/09/20 15:00:18;;;;;;;;;1.20;1.20;;;;;;;;5071035;28;8871;-84
2023/09/20 15:02:45;;;;;;;;;2.20;2.20;;;;;;;;5071243;28;8870;-75
2023/09/20 15:05:14;;;;;;;;;0.80;0.80;;;;;;;;5071397;28;8860;-79
2023/09/20 15:07:42;;;;;;;;;3.00;1.80;;;;;;;;5071699;28;8855;-76
2023/09/20 15:10:16;;;;;;;;;1.00;1.00;;;;;;;;5069916;28;8855;-74
2023/09/20 15:12:49;;;;;;;;;2.00;1.00;;;;;;;;5071088;28;8925;-77
2023/09/20 15:15:17;;;;;;;;;2.20;1.80;;;;;;;;5071702;28;9730;-76
2023/09/20 15:17:44;;;;;;;;;2.00;1.00;;;;;;;;5071660;28;8852;-79
2023/09/20 15:20:14;;;;;;;;;1.00;1.00;;;;;;;;5070482;28;8868;-75
2023/09/20 15:22:41;;;;;;;;;1.00;1.00;;;;;;;;5071393;28;8844;-80
2023/09/20 15:25:12;;;;;;;;;2.20;2.20;;;;;;;;5070550;28;9738;-76
2023/09/20 15:27:39;;;;;;;;;3.40;1.00;;;;;;;;5071017;28;8875;-76
2023/09/20 15:30:09;;;;;;;;;3.00;2.00;;;;;;;;5069722;28;8871;-86
2023/09/20 15:32:37;;;;;;;;;0.80;0.80;;;;;;;;5069843;28;8844;-79
2023/09/20 15:35:06;;;;;;;;;2.80;1.00;;;;;;;;5069898;28;8851;-79
2023/09/20 15:37:41;;;;;;;;;1.00;1.00;;;;;;;;5070972;28;8844;-75
2023/09/20 15:40:13;;;;;;;;;1.00;1.00;;;;;;;;5070543;28;8868;-75
2023/09/20 15:42:45;;;;;;;;;1.20;1.20;;;;;;;;5070832;28;8968;-75
2023/09/20 15:45:16;;;;;;;;;1.20;1.20;;;;;;;;5070106;28;8860;-74
2023/09/20 15:47:43;;;;;;;;;0.80;0.80;;;;;;;;5070464;28;8882;-76
2023/09/20 15:50:11;;;;;;;;;0.20;0.20;;;;;;;;5069853;28;9620;-76